sensor_id;sensor_type;location;lat;lon;timestamp;P1;durP1;ratioP1;P2;durP2;ratioP2
12990;SDS011;6560;57.692;11.958;2024-01-06T00:02:15;6.70;;;5.00;;
12990;SDS011;6560;57.692;11.958;2024-01-06T00:04:41;7.23;;;5.27;;
12990;SDS011;6560;57.692;11.958;2024-01-06T00:07:09;8.60;;;5.30;;
12990;SDS011;6560;57.692;11.958;2024-01-06T00:09:35;6.33;;;4.67;;
12990;SDS011;6560;57.692;11.958;2024-01-06T00:12:00;7.37;;;5.60;;
12990;SDS011;6560;57.692;11.958;2024-01-06T00:14:27;6.90;;;5.50;;
12990;SDS011;6560;57.692;11.958;2024-01-06T00:16:52;6.10;;;5.20;;
12990;SDS011;6560;57.692;11.958;2024-01-06T00:19:18;8.63;;;5.13;;
12990;SDS011;6560;57.692;11.958;2024-01-06T00:21:43;8.83;;;5.27;;
12990;SDS011;6560;57.692;11.958;2024-01-06T00:24:09;5.90;;;4.80;;
12990;SDS011;6560;57.692;11.958;2024-01-06T00:26:34;6.83;;;4.83;;
12990;SDS011;6560;57.692;11.958;2024-01-06T00:29:00;5.80;;;4.37;;
12990;SDS011;6560;57.692;11.958;2024-01-06T00:31:25;8.97;;;5.43;;
12990;SDS011;6560;57.692;11.958;2024-01-06T00:33:50;5.43;;;4.33;;
12990;SDS011;6560;57.692;11.958;2024-01-06T00:36:16;5.37;;;4.70;;
12990;SDS011;6560;57.692;11.958;2024-01-06T00:38:41;8.40;;;5.93;;
12990;SDS011;6560;57.692;11.958;2024-01-06T00:41:07;6.60;;;5.00;;
12990;SDS011;6560;57.692;11.958;2024-01-06T00:43:32;6.63;;;5.07;;
12990;SDS011;6560;57.692;11.958;2024-01-06T00:45:57;6.37;;;4.30;;
12990;SDS011;6560;57.692;11.958;2024-01-06T00:48:23;5.93;;;5.17;;
12990;SDS011;6560;57.692;11.958;2024-01-06T00:50:48;5.67;;;4.57;;
12990;SDS011;6560;57.692;11.958;2024-01-06T00:53:14;8.07;;;4.50;;
12990;SDS011;6560;57.692;11.958;2024-01-06T00:55:39;8.07;;;4.80;;
12990;SDS011;6560;57.692;11.958;2024-01-06T00:58:05;7.47;;;5.53;;
12990;SDS011;6560;57.692;11.958;2024-01-06T01:00:30;5.23;;;4.73;;
12990;SDS011;6560;57.692;11.958;2024-01-06T01:02:55;5.53;;;4.83;;
12990;SDS011;6560;57.692;11.958;2024-01-06T01:05:22;6.30;;;4.53;;
12990;SDS011;6560;57.692;11.958;2024-01-06T01:07:47;5.67;;;4.67;;
12990;SDS011;6560;57.692;11.958;2024-01-06T01:10:12;6.93;;;5.10;;
12990;SDS011;6560;57.692;11.958;2024-01-06T01:12:38;10.13;;;5.00;;
12990;SDS011;6560;57.692;11.958;2024-01-06T01:15:04;5.70;;;4.47;;
12990;SDS011;6560;57.692;11.958;2024-01-06T01:17:30;5.37;;;4.27;;
12990;SDS011;6560;57.692;11.958;2024-01-06T01:19:55;7.97;;;4.80;;
12990;SDS011;6560;57.692;11.958;2024-01-06T01:22:20;5.87;;;4.90;;
12990;SDS011;6560;57.692;11.958;2024-01-06T01:24:46;6.07;;;4.73;;
12990;SDS011;6560;57.692;11.958;2024-01-06T01:27:11;6.63;;;4.93;;
12990;SDS011;6560;57.692;11.958;2024-01-06T01:29:37;7.80;;;4.83;;
12990;SDS011;6560;57.692;11.958;2024-01-06T01:32:03;7.80;;;4.73;;
12990;SDS011;6560;57.692;11.958;2024-01-06T01:34:28;6.10;;;4.27;;
12990;SDS011;6560;57.692;11.958;2024-01-06T01:36:54;5.00;;;4.43;;
12990;SDS011;6560;57.692;11.958;2024-01-06T01:39:19;6.60;;;4.93;;
12990;SDS011;6560;57.692;11.958;2024-01-06T01:41:44;6.43;;;4.30;;
12990;SDS011;6560;57.692;11.958;2024-01-06T01:44:10;5.53;;;4.23;;
12990;SDS011;6560;57.692;11.958;2024-01-06T01:46:35;4.90;;;4.37;;
12990;SDS011;6560;57.692;11.958;2024-01-06T01:49:01;6.33;;;4.33;;
12990;SDS011;6560;57.692;11.958;2024-01-06T01:51:34;6.10;;;4.03;;
12990;SDS011;6560;57.692;11.958;2024-01-06T01:54:01;6.43;;;4.20;;
12990;SDS011;6560;57.692;11.958;2024-01-06T01:56:29;5.23;;;3.83;;
12990;SDS011;6560;57.692;11.958;2024-01-06T01:59:00;4.17;;;3.70;;
12990;SDS011;6560;57.692;11.958;2024-01-06T02:01:36;5.70;;;3.93;;
12990;SDS011;6560;57.692;11.958;2024-01-06T02:04:01;4.07;;;3.53;;
12990;SDS011;6560;57.692;11.958;2024-01-06T02:06:27;5.67;;;4.07;;
12990;SDS011;6560;57.692;11.958;2024-01-06T02:08:53;5.07;;;4.07;;
12990;SDS011;6560;57.692;11.958;2024-01-06T02:11:18;4.70;;;4.10;;
12990;SDS011;6560;57.692;11.958;2024-01-06T02:13:44;5.67;;;4.13;;
12990;SDS011;6560;57.692;11.958;2024-01-06T02:16:09;5.50;;;4.20;;
12990;SDS011;6560;57.692;11.958;2024-01-06T02:18:35;4.57;;;4.07;;
12990;SDS011;6560;57.692;11.958;2024-01-06T02:21:01;5.83;;;3.93;;
12990;SDS011;6560;57.692;11.958;2024-01-06T02:23:27;4.93;;;4.07;;
12990;SDS011;6560;57.692;11.958;2024-01-06T02:25:53;5.33;;;4.00;;
12990;SDS011;6560;57.692;11.958;2024-01-06T02:28:19;3.70;;;3.30;;
12990;SDS011;6560;57.692;11.958;2024-01-06T02:30:45;5.37;;;4.27;;
12990;SDS011;6560;57.692;11.958;2024-01-06T02:33:10;5.93;;;3.97;;
12990;SDS011;6560;57.692;11.958;2024-01-06T02:35:36;5.33;;;3.57;;
12990;SDS011;6560;57.692;11.958;2024-01-06T02:38:01;5.10;;;3.53;;
12990;SDS011;6560;57.692;11.958;2024-01-06T02:40:27;4.67;;;3.77;;
12990;SDS011;6560;57.692;11.958;2024-01-06T02:42:53;5.03;;;4.13;;
12990;SDS011;6560;57.692;11.958;2024-01-06T02:45:18;5.80;;;4.00;;
12990;SDS011;6560;57.692;11.958;2024-01-06T02:47:44;6.50;;;4.30;;
12990;SDS011;6560;57.692;11.958;2024-01-06T02:50:09;7.77;;;4.03;;
12990;SDS011;6560;57.692;11.958;2024-01-06T02:52:36;4.87;;;3.57;;
12990;SDS011;6560;57.692;11.958;2024-01-06T02:55:02;4.93;;;3.70;;
12990;SDS011;6560;57.692;11.958;2024-01-06T02:57:30;4.17;;;3.60;;
12990;SDS011;6560;57.692;11.958;2024-01-06T02:59:56;4.60;;;3.67;;
12990;SDS011;6560;57.692;11.958;2024-01-06T03:02:22;4.00;;;3.60;;
12990;SDS011;6560;57.692;11.958;2024-01-06T03:04:47;5.07;;;4.17;;
12990;SDS011;6560;57.692;11.958;2024-01-06T03:07:13;4.80;;;3.27;;
12990;SDS011;6560;57.692;11.958;2024-01-06T03:09:38;6.50;;;3.77;;
12990;SDS011;6560;57.692;11.958;2024-01-06T03:12:05;6.67;;;3.63;;
12990;SDS011;6560;57.692;11.958;2024-01-06T03:14:32;4.47;;;3.50;;
12990;SDS011;6560;57.692;11.958;2024-01-06T03:16:59;5.17;;;3.83;;
12990;SDS011;6560;57.692;11.958;2024-01-06T03:19:24;4.77;;;3.60;;
12990;SDS011;6560;57.692;11.958;2024-01-06T03:21:52;4.93;;;4.03;;
12990;SDS011;6560;57.692;11.958;2024-01-06T03:24:18;4.43;;;4.00;;
12990;SDS011;6560;57.692;11.958;2024-01-06T03:26:43;4.43;;;3.50;;
12990;SDS011;6560;57.692;11.958;2024-01-06T03:29:08;7.33;;;3.77;;
12990;SDS011;6560;57.692;11.958;2024-01-06T03:31:34;5.73;;;4.30;;
12990;SDS011;6560;57.692;11.958;2024-01-06T03:33:59;4.37;;;3.90;;
12990;SDS011;6560;57.692;11.958;2024-01-06T03:36:25;4.17;;;3.77;;
12990;SDS011;6560;57.692;11.958;2024-01-06T03:38:50;5.83;;;3.53;;
12990;SDS011;6560;57.692;11.958;2024-01-06T03:41:16;5.33;;;4.07;;
12990;SDS011;6560;57.692;11.958;2024-01-06T03:43:41;3.63;;;2.97;;
12990;SDS011;6560;57.692;11.958;2024-01-06T03:46:07;4.37;;;3.77;;
12990;SDS011;6560;57.692;11.958;2024-01-06T03:48:32;4.40;;;3.60;;
12990;SDS011;6560;57.692;11.958;2024-01-06T03:51:01;4.60;;;3.73;;
12990;SDS011;6560;57.692;11.958;2024-01-06T03:53:27;5.03;;;4.27;;
12990;SDS011;6560;57.692;11.958;2024-01-06T03:55:53;6.10;;;3.20;;
12990;SDS011;6560;57.692;11.958;2024-01-06T03:58:18;3.87;;;3.47;;
12990;SDS011;6560;57.692;11.958;2024-01-06T04:00:43;7.03;;;3.70;;
12990;SDS011;6560;57.692;11.958;2024-01-06T04:03:09;4.70;;;3.50;;
12990;SDS011;6560;57.692;11.958;2024-01-06T04:05:34;5.50;;;4.07;;
12990;SDS011;6560;57.692;11.958;2024-01-06T04:08:00;5.03;;;4.00;;
12990;SDS011;6560;57.692;11.958;2024-01-06T04:10:25;4.27;;;3.70;;
12990;SDS011;6560;57.692;11.958;2024-01-06T04:12:51;4.43;;;3.93;;
12990;SDS011;6560;57.692;11.958;2024-01-06T04:15:16;5.30;;;3.60;;
12990;SDS011;6560;57.692;11.958;2024-01-06T04:17:42;5.00;;;3.70;;
12990;SDS011;6560;57.692;11.958;2024-01-06T04:20:07;5.40;;;3.77;;
12990;SDS011;6560;57.692;11.958;2024-01-06T04:22:36;4.27;;;3.87;;
12990;SDS011;6560;57.692;11.958;2024-01-06T04:25:01;4.20;;;3.30;;
12990;SDS011;6560;57.692;11.958;2024-01-06T04:27:27;12.07;;;3.97;;
12990;SDS011;6560;57.692;11.958;2024-01-06T04:29:54;5.67;;;3.53;;
12990;SDS011;6560;57.692;11.958;2024-01-06T04:32:19;4.83;;;4.20;;
12990;SDS011;6560;57.692;11.958;2024-01-06T04:34:45;6.63;;;3.60;;
12990;SDS011;6560;57.692;11.958;2024-01-06T04:37:10;7.60;;;3.73;;
12990;SDS011;6560;57.692;11.958;2024-01-06T04:39:36;4.37;;;3.80;;
12990;SDS011;6560;57.692;11.958;2024-01-06T04:42:01;3.53;;;3.20;;
12990;SDS011;6560;57.692;11.958;2024-01-06T04:44:27;8.03;;;3.63;;
12990;SDS011;6560;57.692;11.958;2024-01-06T04:46:52;4.07;;;3.67;;
12990;SDS011;6560;57.692;11.958;2024-01-06T04:49:17;6.33;;;4.10;;
12990;SDS011;6560;57.692;11.958;2024-01-06T04:51:43;3.83;;;3.47;;
12990;SDS011;6560;57.692;11.958;2024-01-06T04:54:08;4.40;;;3.93;;
12990;SDS011;6560;57.692;11.958;2024-01-06T04:56:34;3.80;;;3.30;;
12990;SDS011;6560;57.692;11.958;2024-01-06T04:58:59;5.63;;;3.67;;
12990;SDS011;6560;57.692;11.958;2024-01-06T05:01:24;6.03;;;3.90;;
12990;SDS011;6560;57.692;11.958;2024-01-06T05:03:50;6.57;;;4.20;;
12990;SDS011;6560;57.692;11.958;2024-01-06T05:06:15;4.10;;;3.70;;
12990;SDS011;6560;57.692;11.958;2024-01-06T05:08:40;3.67;;;3.33;;
12990;SDS011;6560;57.692;11.958;2024-01-06T05:11:09;5.27;;;3.70;;
12990;SDS011;6560;57.692;11.958;2024-01-06T05:13:35;4.70;;;3.87;;
12990;SDS011;6560;57.692;11.958;2024-01-06T05:16:01;4.67;;;4.00;;
12990;SDS011;6560;57.692;11.958;2024-01-06T05:18:27;6.50;;;3.70;;
12990;SDS011;6560;57.692;11.958;2024-01-06T05:20:52;4.70;;;4.00;;
12990;SDS011;6560;57.692;11.958;2024-01-06T05:23:18;4.80;;;3.73;;
12990;SDS011;6560;57.692;11.958;2024-01-06T05:25:44;4.70;;;3.73;;
12990;SDS011;6560;57.692;11.958;2024-01-06T05:28:09;4.60;;;4.20;;
12990;SDS011;6560;57.692;11.958;2024-01-06T05:30:35;5.07;;;4.20;;
12990;SDS011;6560;57.692;11.958;2024-01-06T05:33:01;4.57;;;3.63;;
12990;SDS011;6560;57.692;11.958;2024-01-06T05:35:26;4.93;;;4.13;;
12990;SDS011;6560;57.692;11.958;2024-01-06T05:37:52;5.83;;;3.70;;
12990;SDS011;6560;57.692;11.958;2024-01-06T05:40:17;5.70;;;3.60;;
12990;SDS011;6560;57.692;11.958;2024-01-06T05:42:42;4.77;;;3.97;;
12990;SDS011;6560;57.692;11.958;2024-01-06T05:45:10;7.20;;;4.57;;
12990;SDS011;6560;57.692;11.958;2024-01-06T05:47:37;4.20;;;3.80;;
12990;SDS011;6560;57.692;11.958;2024-01-06T05:50:03;5.13;;;4.10;;
12990;SDS011;6560;57.692;11.958;2024-01-06T05:52:28;5.40;;;3.87;;
12990;SDS011;6560;57.692;11.958;2024-01-06T05:54:54;4.67;;;4.13;;
12990;SDS011;6560;57.692;11.958;2024-01-06T05:57:19;5.07;;;4.57;;
12990;SDS011;6560;57.692;11.958;2024-01-06T05:59:45;5.33;;;4.40;;
12990;SDS011;6560;57.692;11.958;2024-01-06T06:02:10;5.60;;;4.10;;
12990;SDS011;6560;57.692;11.958;2024-01-06T06:04:36;9.03;;;5.27;;
12990;SDS011;6560;57.692;11.958;2024-01-06T06:07:01;5.50;;;4.53;;
12990;SDS011;6560;57.692;11.958;2024-01-06T06:09:28;4.93;;;4.30;;
12990;SDS011;6560;57.692;11.958;2024-01-06T06:11:54;4.47;;;3.77;;
12990;SDS011;6560;57.692;11.958;2024-01-06T06:14:19;5.50;;;4.20;;
12990;SDS011;6560;57.692;11.958;2024-01-06T06:16:45;4.50;;;3.97;;
12990;SDS011;6560;57.692;11.958;2024-01-06T06:19:12;5.60;;;4.90;;
12990;SDS011;6560;57.692;11.958;2024-01-06T06:21:38;4.10;;;3.70;;
12990;SDS011;6560;57.692;11.958;2024-01-06T06:24:04;6.03;;;3.83;;
12990;SDS011;6560;57.692;11.958;2024-01-06T06:26:29;5.83;;;4.00;;
12990;SDS011;6560;57.692;11.958;2024-01-06T06:28:55;4.57;;;3.73;;
12990;SDS011;6560;57.692;11.958;2024-01-06T06:31:20;5.77;;;4.30;;
12990;SDS011;6560;57.692;11.958;2024-01-06T06:33:46;7.73;;;4.60;;
12990;SDS011;6560;57.692;11.958;2024-01-06T06:36:11;5.57;;;4.00;;
12990;SDS011;6560;57.692;11.958;2024-01-06T06:38:36;5.50;;;3.70;;
12990;SDS011;6560;57.692;11.958;2024-01-06T06:41:02;7.07;;;4.17;;
12990;SDS011;6560;57.692;11.958;2024-01-06T06:43:27;9.17;;;4.53;;
12990;SDS011;6560;57.692;11.958;2024-01-06T06:45:53;5.67;;;3.90;;
12990;SDS011;6560;57.692;11.958;2024-01-06T06:48:20;5.87;;;4.03;;
12990;SDS011;6560;57.692;11.958;2024-01-06T06:50:46;7.37;;;4.43;;
12990;SDS011;6560;57.692;11.958;2024-01-06T06:53:11;3.57;;;3.27;;
12990;SDS011;6560;57.692;11.958;2024-01-06T06:55:37;5.20;;;3.83;;
12990;SDS011;6560;57.692;11.958;2024-01-06T06:58:03;8.70;;;4.30;;
12990;SDS011;6560;57.692;11.958;2024-01-06T07:00:30;5.80;;;4.30;;
12990;SDS011;6560;57.692;11.958;2024-01-06T07:02:55;4.97;;;4.23;;
12990;SDS011;6560;57.692;11.958;2024-01-06T07:05:21;4.07;;;3.60;;
12990;SDS011;6560;57.692;11.958;2024-01-06T07:07:47;4.73;;;4.27;;
12990;SDS011;6560;57.692;11.958;2024-01-06T07:10:13;5.03;;;3.73;;
12990;SDS011;6560;57.692;11.958;2024-01-06T07:12:38;5.30;;;4.20;;
12990;SDS011;6560;57.692;11.958;2024-01-06T07:15:04;5.03;;;4.07;;
12990;SDS011;6560;57.692;11.958;2024-01-06T07:17:29;4.37;;;3.97;;
12990;SDS011;6560;57.692;11.958;2024-01-06T07:19:55;5.87;;;4.27;;
12990;SDS011;6560;57.692;11.958;2024-01-06T07:22:20;4.87;;;3.87;;
12990;SDS011;6560;57.692;11.958;2024-01-06T07:24:46;5.10;;;3.93;;
12990;SDS011;6560;57.692;11.958;2024-01-06T07:27:11;6.30;;;4.23;;
12990;SDS011;6560;57.692;11.958;2024-01-06T07:29:37;5.43;;;4.13;;
12990;SDS011;6560;57.692;11.958;2024-01-06T07:32:04;8.57;;;5.00;;
12990;SDS011;6560;57.692;11.958;2024-01-06T07:34:31;7.83;;;4.20;;
12990;SDS011;6560;57.692;11.958;2024-01-06T07:36:56;6.27;;;4.63;;
12990;SDS011;6560;57.692;11.958;2024-01-06T07:39:22;5.47;;;4.03;;
12990;SDS011;6560;57.692;11.958;2024-01-06T07:41:49;7.17;;;4.43;;
12990;SDS011;6560;57.692;11.958;2024-01-06T07:44:14;4.47;;;4.00;;
12990;SDS011;6560;57.692;11.958;2024-01-06T07:46:41;6.50;;;4.37;;
12990;SDS011;6560;57.692;11.958;2024-01-06T07:49:07;5.13;;;4.40;;
12990;SDS011;6560;57.692;11.958;2024-01-06T07:51:32;6.03;;;4.70;;
12990;SDS011;6560;57.692;11.958;2024-01-06T07:53:59;7.07;;;4.23;;
12990;SDS011;6560;57.692;11.958;2024-01-06T07:56:25;10.43;;;4.90;;
12990;SDS011;6560;57.692;11.958;2024-01-06T07:58:51;5.50;;;4.80;;
12990;SDS011;6560;57.692;11.958;2024-01-06T08:01:17;5.47;;;3.90;;
12990;SDS011;6560;57.692;11.958;2024-01-06T08:03:43;7.30;;;4.50;;
12990;SDS011;6560;57.692;11.958;2024-01-06T08:06:09;6.63;;;4.07;;
12990;SDS011;6560;57.692;11.958;2024-01-06T08:08:35;7.03;;;4.73;;
12990;SDS011;6560;57.692;11.958;2024-01-06T08:11:00;7.30;;;4.43;;
12990;SDS011;6560;57.692;11.958;2024-01-06T08:13:26;5.57;;;4.37;;
12990;SDS011;6560;57.692;11.958;2024-01-06T08:15:51;8.37;;;5.23;;
12990;SDS011;6560;57.692;11.958;2024-01-06T08:18:17;5.60;;;4.50;;
12990;SDS011;6560;57.692;11.958;2024-01-06T08:20:43;9.17;;;4.67;;
12990;SDS011;6560;57.692;11.958;2024-01-06T08:23:08;6.57;;;5.00;;
12990;SDS011;6560;57.692;11.958;2024-01-06T08:25:34;5.40;;;4.33;;
12990;SDS011;6560;57.692;11.958;2024-01-06T08:27:59;4.90;;;4.20;;
12990;SDS011;6560;57.692;11.958;2024-01-06T08:30:28;4.80;;;4.07;;
12990;SDS011;6560;57.692;11.958;2024-01-06T08:32:53;6.73;;;4.73;;
12990;SDS011;6560;57.692;11.958;2024-01-06T08:35:19;5.43;;;4.10;;
12990;SDS011;6560;57.692;11.958;2024-01-06T08:37:44;8.33;;;4.90;;
12990;SDS011;6560;57.692;11.958;2024-01-06T08:40:10;10.77;;;6.07;;
12990;SDS011;6560;57.692;11.958;2024-01-06T08:42:36;6.63;;;4.97;;
12990;SDS011;6560;57.692;11.958;2024-01-06T08:45:01;9.70;;;4.80;;
12990;SDS011;6560;57.692;11.958;2024-01-06T08:47:27;6.00;;;5.00;;
12990;SDS011;6560;57.692;11.958;2024-01-06T08:49:53;7.97;;;4.80;;
12990;SDS011;6560;57.692;11.958;2024-01-06T08:52:18;7.50;;;5.70;;
12990;SDS011;6560;57.692;11.958;2024-01-06T08:54:44;6.13;;;4.27;;
12990;SDS011;6560;57.692;11.958;2024-01-06T08:57:09;9.23;;;6.83;;
12990;SDS011;6560;57.692;11.958;2024-01-06T08:59:35;6.73;;;4.73;;
12990;SDS011;6560;57.692;11.958;2024-01-06T09:02:00;5.27;;;4.33;;
12990;SDS011;6560;57.692;11.958;2024-01-06T09:04:26;5.40;;;4.47;;
12990;SDS011;6560;57.692;11.958;2024-01-06T09:06:51;4.73;;;4.03;;
12990;SDS011;6560;57.692;11.958;2024-01-06T09:09:17;5.73;;;3.93;;
12990;SDS011;6560;57.692;11.958;2024-01-06T09:11:42;5.83;;;4.97;;
12990;SDS011;6560;57.692;11.958;2024-01-06T09:14:09;10.30;;;5.20;;
12990;SDS011;6560;57.692;11.958;2024-01-06T09:16:37;6.33;;;4.70;;
12990;SDS011;6560;57.692;11.958;2024-01-06T09:19:04;7.57;;;4.43;;
12990;SDS011;6560;57.692;11.958;2024-01-06T09:21:30;6.73;;;4.43;;
12990;SDS011;6560;57.692;11.958;2024-01-06T09:23:55;6.17;;;4.47;;
12990;SDS011;6560;57.692;11.958;2024-01-06T09:26:21;6.00;;;4.63;;
12990;SDS011;6560;57.692;11.958;2024-01-06T09:28:46;6.10;;;4.40;;
12990;SDS011;6560;57.692;11.958;2024-01-06T09:31:12;7.17;;;4.53;;
12990;SDS011;6560;57.692;11.958;2024-01-06T09:33:38;8.87;;;4.90;;
12990;SDS011;6560;57.692;11.958;2024-01-06T09:36:04;8.07;;;5.40;;
12990;SDS011;6560;57.692;11.958;2024-01-06T09:38:30;5.67;;;4.63;;
12990;SDS011;6560;57.692;11.958;2024-01-06T09:40:55;6.27;;;5.03;;
12990;SDS011;6560;57.692;11.958;2024-01-06T09:43:22;5.20;;;4.57;;
12990;SDS011;6560;57.692;11.958;2024-01-06T09:45:48;6.23;;;4.77;;
12990;SDS011;6560;57.692;11.958;2024-01-06T09:48:23;7.67;;;5.80;;
12990;SDS011;6560;57.692;11.958;2024-01-06T09:50:56;6.03;;;5.10;;
12990;SDS011;6560;57.692;11.958;2024-01-06T09:53:23;6.53;;;4.93;;
12990;SDS011;6560;57.692;11.958;2024-01-06T09:55:54;7.80;;;5.77;;
12990;SDS011;6560;57.692;11.958;2024-01-06T09:58:21;8.47;;;5.20;;
12990;SDS011;6560;57.692;11.958;2024-01-06T10:00:48;7.30;;;5.63;;
12990;SDS011;6560;57.692;11.958;2024-01-06T10:03:14;6.73;;;5.93;;
12990;SDS011;6560;57.692;11.958;2024-01-06T10:05:40;8.87;;;5.80;;
12990;SDS011;6560;57.692;11.958;2024-01-06T10:08:05;8.07;;;5.80;;
12990;SDS011;6560;57.692;11.958;2024-01-06T10:10:33;6.87;;;4.80;;
12990;SDS011;6560;57.692;11.958;2024-01-06T10:13:00;8.23;;;6.07;;
12990;SDS011;6560;57.692;11.958;2024-01-06T10:15:26;7.43;;;5.23;;
12990;SDS011;6560;57.692;11.958;2024-01-06T10:17:53;7.97;;;4.83;;
12990;SDS011;6560;57.692;11.958;2024-01-06T10:20:19;8.63;;;5.60;;
12990;SDS011;6560;57.692;11.958;2024-01-06T10:22:46;8.00;;;4.90;;
12990;SDS011;6560;57.692;11.958;2024-01-06T10:25:11;6.73;;;4.83;;
12990;SDS011;6560;57.692;11.958;2024-01-06T10:27:37;6.43;;;4.80;;
12990;SDS011;6560;57.692;11.958;2024-01-06T10:30:04;5.40;;;4.17;;
12990;SDS011;6560;57.692;11.958;2024-01-06T10:32:31;5.93;;;3.97;;
12990;SDS011;6560;57.692;11.958;2024-01-06T10:34:57;7.70;;;4.87;;
12990;SDS011;6560;57.692;11.958;2024-01-06T10:37:23;6.17;;;3.83;;
12990;SDS011;6560;57.692;11.958;2024-01-06T10:40:04;5.67;;;4.30;;
12990;SDS011;6560;57.692;11.958;2024-01-06T10:42:53;6.20;;;5.13;;
12990;SDS011;6560;57.692;11.958;2024-01-06T10:45:21;4.40;;;3.80;;
12990;SDS011;6560;57.692;11.958;2024-01-06T10:47:46;8.93;;;4.43;;
12990;SDS011;6560;57.692;11.958;2024-01-06T10:50:14;4.83;;;3.10;;
12990;SDS011;6560;57.692;11.958;2024-01-06T10:52:42;5.33;;;4.10;;
12990;SDS011;6560;57.692;11.958;2024-01-06T10:55:08;4.87;;;3.73;;
12990;SDS011;6560;57.692;11.958;2024-01-06T10:57:34;3.83;;;3.43;;
12990;SDS011;6560;57.692;11.958;2024-01-06T11:00:03;4.20;;;3.43;;
12990;SDS011;6560;57.692;11.958;2024-01-06T11:02:30;7.53;;;3.20;;
12990;SDS011;6560;57.692;11.958;2024-01-06T11:04:56;3.97;;;3.57;;
12990;SDS011;6560;57.692;11.958;2024-01-06T11:07:23;3.40;;;3.00;;
12990;SDS011;6560;57.692;11.958;2024-01-06T11:12:21;3.23;;;2.90;;
12990;SDS011;6560;57.692;11.958;2024-01-06T11:14:47;5.20;;;3.07;;
12990;SDS011;6560;57.692;11.958;2024-01-06T11:17:12;4.40;;;3.23;;
12990;SDS011;6560;57.692;11.958;2024-01-06T11:25:04;4.70;;;3.23;;
12990;SDS011;6560;57.692;11.958;2024-01-06T11:27:32;4.53;;;3.50;;
12990;SDS011;6560;57.692;11.958;2024-01-06T11:29:59;3.47;;;3.00;;
12990;SDS011;6560;57.692;11.958;2024-01-06T11:32:32;4.77;;;3.10;;
12990;SDS011;6560;57.692;11.958;2024-01-06T11:35:10;3.37;;;3.07;;
12990;SDS011;6560;57.692;11.958;2024-01-06T11:42:59;5.47;;;3.50;;
12990;SDS011;6560;57.692;11.958;2024-01-06T11:45:25;3.87;;;3.33;;
12990;SDS011;6560;57.692;11.958;2024-01-06T11:47:53;4.70;;;3.03;;
12990;SDS011;6560;57.692;11.958;2024-01-06T11:50:27;5.30;;;3.60;;
12990;SDS011;6560;57.692;11.958;2024-01-06T11:52:54;4.23;;;3.23;;
12990;SDS011;6560;57.692;11.958;2024-01-06T11:55:20;5.37;;;3.40;;
12990;SDS011;6560;57.692;11.958;2024-01-06T11:57:46;4.33;;;3.07;;
12990;SDS011;6560;57.692;11.958;2024-01-06T12:00:14;4.30;;;3.90;;
12990;SDS011;6560;57.692;11.958;2024-01-06T12:02:40;4.97;;;3.57;;
12990;SDS011;6560;57.692;11.958;2024-01-06T12:05:11;4.30;;;3.47;;
12990;SDS011;6560;57.692;11.958;2024-01-06T12:07:39;5.37;;;3.63;;
12990;SDS011;6560;57.692;11.958;2024-01-06T12:10:06;4.73;;;3.53;;
12990;SDS011;6560;57.692;11.958;2024-01-06T12:12:32;4.90;;;3.83;;
12990;SDS011;6560;57.692;11.958;2024-01-06T12:14:58;7.23;;;3.93;;
12990;SDS011;6560;57.692;11.958;2024-01-06T12:17:23;4.43;;;3.60;;
12990;SDS011;6560;57.692;11.958;2024-01-06T12:19:54;7.00;;;4.37;;
12990;SDS011;6560;57.692;11.958;2024-01-06T12:22:20;7.97;;;4.10;;
12990;SDS011;6560;57.692;11.958;2024-01-06T12:24:48;5.00;;;3.50;;
12990;SDS011;6560;57.692;11.958;2024-01-06T12:27:14;6.37;;;4.07;;
12990;SDS011;6560;57.692;11.958;2024-01-06T12:29:40;5.93;;;4.33;;
12990;SDS011;6560;57.692;11.958;2024-01-06T12:32:06;5.33;;;4.57;;
12990;SDS011;6560;57.692;11.958;2024-01-06T12:34:33;6.40;;;4.23;;
12990;SDS011;6560;57.692;11.958;2024-01-06T12:37:00;5.23;;;4.10;;
12990;SDS011;6560;57.692;11.958;2024-01-06T12:39:27;6.97;;;4.83;;
12990;SDS011;6560;57.692;11.958;2024-01-06T12:41:54;5.27;;;4.00;;
12990;SDS011;6560;57.692;11.958;2024-01-06T12:44:20;7.33;;;4.43;;
12990;SDS011;6560;57.692;11.958;2024-01-06T12:46:46;7.13;;;5.07;;
12990;SDS011;6560;57.692;11.958;2024-01-06T12:49:12;8.07;;;5.10;;
12990;SDS011;6560;57.692;11.958;2024-01-06T12:51:37;7.83;;;5.23;;
12990;SDS011;6560;57.692;11.958;2024-01-06T12:54:03;9.17;;;5.17;;
12990;SDS011;6560;57.692;11.958;2024-01-06T12:56:28;7.87;;;4.70;;
12990;SDS011;6560;57.692;11.958;2024-01-06T12:58:54;5.13;;;4.17;;
12990;SDS011;6560;57.692;11.958;2024-01-06T13:01:19;6.00;;;4.37;;
12990;SDS011;6560;57.692;11.958;2024-01-06T13:03:45;6.83;;;4.90;;
12990;SDS011;6560;57.692;11.958;2024-01-06T13:06:11;7.40;;;4.60;;
12990;SDS011;6560;57.692;11.958;2024-01-06T13:08:36;8.40;;;5.30;;
12990;SDS011;6560;57.692;11.958;2024-01-06T13:11:02;6.10;;;4.83;;
12990;SDS011;6560;57.692;11.958;2024-01-06T13:13:28;5.80;;;4.63;;
12990;SDS011;6560;57.692;11.958;2024-01-06T13:15:53;6.07;;;4.63;;
12990;SDS011;6560;57.692;11.958;2024-01-06T13:18:19;6.50;;;4.73;;
12990;SDS011;6560;57.692;11.958;2024-01-06T13:20:44;6.00;;;4.73;;
12990;SDS011;6560;57.692;11.958;2024-01-06T13:23:10;5.83;;;4.47;;
12990;SDS011;6560;57.692;11.958;2024-01-06T13:25:39;6.60;;;5.50;;
12990;SDS011;6560;57.692;11.958;2024-01-06T13:28:06;5.40;;;4.57;;
12990;SDS011;6560;57.692;11.958;2024-01-06T13:30:32;4.33;;;3.87;;
12990;SDS011;6560;57.692;11.958;2024-01-06T13:33:00;4.73;;;4.27;;
12990;SDS011;6560;57.692;11.958;2024-01-06T13:35:26;5.87;;;4.47;;
12990;SDS011;6560;57.692;11.958;2024-01-06T13:37:52;7.07;;;4.50;;
12990;SDS011;6560;57.692;11.958;2024-01-06T13:40:18;4.33;;;3.43;;
12990;SDS011;6560;57.692;11.958;2024-01-06T13:42:48;5.10;;;3.90;;
12990;SDS011;6560;57.692;11.958;2024-01-06T13:45:13;5.23;;;4.07;;
12990;SDS011;6560;57.692;11.958;2024-01-06T13:47:39;6.67;;;4.13;;
12990;SDS011;6560;57.692;11.958;2024-01-06T13:50:10;5.37;;;4.23;;
12990;SDS011;6560;57.692;11.958;2024-01-06T13:52:37;5.43;;;4.43;;
12990;SDS011;6560;57.692;11.958;2024-01-06T13:55:03;8.33;;;4.57;;
12990;SDS011;6560;57.692;11.958;2024-01-06T13:57:29;4.37;;;3.73;;
12990;SDS011;6560;57.692;11.958;2024-01-06T13:59:54;4.13;;;3.60;;
12990;SDS011;6560;57.692;11.958;2024-01-06T14:02:20;4.77;;;4.10;;
12990;SDS011;6560;57.692;11.958;2024-01-06T14:04:46;5.77;;;4.00;;
12990;SDS011;6560;57.692;11.958;2024-01-06T14:07:11;9.20;;;4.60;;
12990;SDS011;6560;57.692;11.958;2024-01-06T14:09:37;4.10;;;3.67;;
12990;SDS011;6560;57.692;11.958;2024-01-06T14:12:02;4.53;;;3.83;;
12990;SDS011;6560;57.692;11.958;2024-01-06T14:14:31;5.63;;;4.73;;
12990;SDS011;6560;57.692;11.958;2024-01-06T14:16:57;6.60;;;4.37;;
12990;SDS011;6560;57.692;11.958;2024-01-06T14:19:23;4.57;;;4.13;;
12990;SDS011;6560;57.692;11.958;2024-01-06T14:21:49;5.53;;;4.27;;
12990;SDS011;6560;57.692;11.958;2024-01-06T14:24:15;4.00;;;3.60;;
12990;SDS011;6560;57.692;11.958;2024-01-06T14:26:48;5.70;;;4.03;;
12990;SDS011;6560;57.692;11.958;2024-01-06T14:29:18;5.13;;;4.60;;
12990;SDS011;6560;57.692;11.958;2024-01-06T14:31:44;5.27;;;4.37;;
12990;SDS011;6560;57.692;11.958;2024-01-06T14:34:09;6.63;;;4.33;;
12990;SDS011;6560;57.692;11.958;2024-01-06T14:36:35;9.27;;;4.30;;
12990;SDS011;6560;57.692;11.958;2024-01-06T14:39:01;5.30;;;3.80;;
12990;SDS011;6560;57.692;11.958;2024-01-06T14:41:26;5.30;;;3.83;;
12990;SDS011;6560;57.692;11.958;2024-01-06T14:43:52;7.50;;;4.47;;
12990;SDS011;6560;57.692;11.958;2024-01-06T14:46:19;6.33;;;4.17;;
12990;SDS011;6560;57.692;11.958;2024-01-06T14:48:44;6.57;;;4.27;;
12990;SDS011;6560;57.692;11.958;2024-01-06T14:51:10;5.70;;;4.73;;
12990;SDS011;6560;57.692;11.958;2024-01-06T14:53:35;4.90;;;4.37;;
12990;SDS011;6560;57.692;11.958;2024-01-06T14:56:01;6.53;;;4.50;;